Time;durP1;ratioP1;P1;durP2;ratioP2;P2;SDS_P1;SDS_P2;PMS_P1;PMS_P2;Temp;Humidity;BMP_temperature;BMP_pressure;BME280_temperature;BME280_humidity;BME280_pressure;Samples;Min_cycle;Max_cycle;Signal;HPM_P1;HPM_P2
2023/07/28 00:02:11;;;;;;;5.60;4.00;;;;;;;;;;5012196;28;20228;-80
2023/07/28 00:04:37;;;;;;;4.82;4.43;;;;;;;;;;5028911;28;20228;-79
2023/07/28 00:07:05;;;;;;;5.95;5.45;;;;;;;;;;5027644;28;20211;-79
2023/07/28 00:09:31;;;;;;;6.72;6.13;;;;;;;;;;5028300;28;20611;-78
2023/07/28 00:12:00;;;;;;;6.55;6.03;;;;;;;;;;5038537;28;20216;-79
2023/07/28 00:14:32;;;;;;;6.50;5.90;;;;;;;;;;5023192;28;20224;-80
2023/07/28 00:17:00;;;;;;;6.85;5.97;;;;;;;;;;5049589;28;20245;-79
2023/07/28 00:19:26;;;;;;;6.40;5.80;;;;;;;;;;5033900;28;20219;-79
2023/07/28 00:21:52;;;;;;;6.18;5.68;;;;;;;;;;5023731;28;20230;-79
2023/07/28 00:24:20;;;;;;;6.00;5.50;;;;;;;;;;5023486;28;20216;-78
2023/07/28 00:26:45;;;;;;;6.63;5.72;;;;;;;;;;5035561;28;20255;-79
2023/07/28 00:29:15;;;;;;;7.93;6.55;;;;;;;;;;5012849;28;20212;-79
2023/07/28 00:31:41;;;;;;;7.25;6.55;;;;;;;;;;5012039;28;20731;-80
2023/07/28 00:34:07;;;;;;;7.50;6.53;;;;;;;;;;5046992;28;20768;-80
2023/07/28 00:36:33;;;;;;;8.55;6.82;;;;;;;;;;5020818;28;20234;-76
2023/07/28 00:38:58;;;;;;;6.18;5.68;;;;;;;;;;5024009;28;20219;-77
2023/07/28 00:41:24;;;;;;;7.93;7.20;;;;;;;;;;5019801;28;20234;-78
2023/07/28 00:43:52;;;;;;;8.57;7.55;;;;;;;;;;5019838;28;20254;-78
2023/07/28 00:46:17;;;;;;;8.10;7.30;;;;;;;;;;5008577;28;20327;-80
2023/07/28 00:48:44;;;;;;;7.95;7.25;;;;;;;;;;5031769;28;20219;-78
2023/07/28 00:51:11;;;;;;;7.75;6.97;;;;;;;;;;5018698;28;20227;-78
2023/07/28 00:53:39;;;;;;;7.05;6.07;;;;;;;;;;5017031;28;20255;-78
2023/07/28 00:56:06;;;;;;;7.00;6.30;;;;;;;;;;5016980;28;20269;-79
2023/07/28 00:58:34;;;;;;;7.32;5.90;;;;;;;;;;5019301;28;20219;-78
2023/07/28 01:01:02;;;;;;;7.40;6.40;;;;;;;;;;5037834;28;20303;-80
2023/07/28 01:03:27;;;;;;;8.90;6.38;;;;;;;;;;5014560;28;20227;-79
2023/07/28 01:06:09;;;;;;;7.13;6.43;;;;;;;;;;4999475;28;20220;-80
2023/07/28 01:08:57;;;;;;;7.45;6.70;;;;;;;;;;5036963;28;20224;-80
2023/07/28 01:11:23;;;;;;;8.27;6.75;;;;;;;;;;5015789;28;20240;-79
2023/07/28 01:13:51;;;;;;;9.13;7.65;;;;;;;;;;5017379;28;20227;-78
2023/07/28 01:16:16;;;;;;;7.78;6.97;;;;;;;;;;5010047;28;20215;-79
2023/07/28 01:18:42;;;;;;;7.22;6.53;;;;;;;;;;5018294;28;20285;-80
2023/07/28 01:21:16;;;;;;;7.93;7.22;;;;;;;;;;5008818;28;20222;-79
2023/07/28 01:24:12;;;;;;;7.68;6.95;;;;;;;;;;5010870;28;20226;-78
2023/07/28 01:26:41;;;;;;;7.57;6.88;;;;;;;;;;5038743;28;20236;-79
2023/07/28 01:29:06;;;;;;;6.78;6.18;;;;;;;;;;5020399;28;20334;-81
2023/07/28 01:31:32;;;;;;;6.45;5.85;;;;;;;;;;5014869;28;20295;-79
2023/07/28 01:33:57;;;;;;;6.35;5.75;;;;;;;;;;5036470;28;20219;-77
2023/07/28 01:36:25;;;;;;;6.88;6.18;;;;;;;;;;5025068;28;20227;-80
2023/07/28 01:38:53;;;;;;;5.95;5.45;;;;;;;;;;5044251;28;20341;-78
2023/07/28 01:41:19;;;;;;;7.20;5.75;;;;;;;;;;5027206;28;20211;-80
2023/07/28 01:43:47;;;;;;;5.25;4.75;;;;;;;;;;5036305;28;20273;-78
2023/07/28 01:46:13;;;;;;;5.35;4.85;;;;;;;;;;5014229;28;20264;-79
2023/07/28 01:48:40;;;;;;;4.65;4.28;;;;;;;;;;5027976;28;20223;-79
2023/07/28 01:51:08;;;;;;;5.03;4.53;;;;;;;;;;5000849;28;20238;-80
2023/07/28 01:53:33;;;;;;;4.60;4.20;;;;;;;;;;5016733;28;20245;-79
2023/07/28 01:56:01;;;;;;;4.95;4.55;;;;;;;;;;5027375;28;20226;-79
2023/07/28 01:58:27;;;;;;;4.65;4.22;;;;;;;;;;5014876;28;20257;-80
2023/07/28 02:00:52;;;;;;;4.65;4.20;;;;;;;;;;5004868;28;20343;-79
2023/07/28 02:03:20;;;;;;;3.67;3.38;;;;;;;;;;5023846;28;20247;-79
2023/07/28 02:05:48;;;;;;;3.67;3.30;;;;;;;;;;5034608;28;20226;-78
2023/07/28 02:08:14;;;;;;;4.68;4.28;;;;;;;;;;5033357;28;20215;-80
2023/07/28 02:10:42;;;;;;;5.18;4.68;;;;;;;;;;5018333;28;20227;-79
2023/07/28 02:13:09;;;;;;;6.07;5.47;;;;;;;;;;5029787;28;20226;-79
2023/07/28 02:15:35;;;;;;;5.70;4.70;;;;;;;;;;5013901;28;20219;-79
2023/07/28 02:18:04;;;;;;;5.97;4.88;;;;;;;;;;5017333;28;20223;-79
2023/07/28 02:20:30;;;;;;;6.07;5.18;;;;;;;;;;5014524;28;20301;-77
2023/07/28 02:22:58;;;;;;;6.80;5.50;;;;;;;;;;5018827;28;20220;-79
2023/07/28 02:25:36;;;;;;;6.30;5.80;;;;;;;;;;5016679;28;20356;-79
2023/07/28 02:28:02;;;;;;;6.85;5.50;;;;;;;;;;5049987;28;20310;-78
2023/07/28 02:30:30;;;;;;;5.88;5.35;;;;;;;;;;5000537;28;20223;-79
2023/07/28 02:32:58;;;;;;;5.95;4.97;;;;;;;;;;5048898;28;20223;-77
2023/07/28 02:35:28;;;;;;;6.15;4.85;;;;;;;;;;5021978;28;20237;-79
2023/07/28 02:37:58;;;;;;;5.47;4.97;;;;;;;;;;5036907;28;20227;-78
2023/07/28 02:40:26;;;;;;;5.60;5.10;;;;;;;;;;5013194;28;20235;-78
2023/07/28 02:42:54;;;;;;;5.95;4.90;;;;;;;;;;5047543;28;20200;-80
2023/07/28 02:45:22;;;;;;;6.43;5.28;;;;;;;;;;4999470;28;20290;-80
2023/07/28 02:47:48;;;;;;;4.93;4.53;;;;;;;;;;5028446;28;20273;-79
2023/07/28 02:50:15;;;;;;;4.60;4.20;;;;;;;;;;5021065;28;20389;-79
2023/07/28 02:52:43;;;;;;;4.47;4.07;;;;;;;;;;5042908;28;20707;-80
2023/07/28 02:55:11;;;;;;;4.68;4.28;;;;;;;;;;5042146;28;20226;-81
2023/07/28 02:57:37;;;;;;;4.32;4.03;;;;;;;;;;5022581;28;20228;-79
2023/07/28 03:00:05;;;;;;;4.28;3.88;;;;;;;;;;5015557;28;20242;-79
2023/07/28 03:02:33;;;;;;;4.30;4.00;;;;;;;;;;5045902;28;20231;-81
2023/07/28 03:05:03;;;;;;;5.03;4.53;;;;;;;;;;5000043;28;20222;-80
2023/07/28 03:08:09;;;;;;;5.05;4.55;;;;;;;;;;4928225;29;20290;-82
2023/07/28 03:10:35;;;;;;;5.40;4.90;;;;;;;;;;5006031;28;20318;-78
2023/07/28 03:13:00;;;;;;;5.85;5.25;;;;;;;;;;5022813;28;20222;-81
2023/07/28 03:15:26;;;;;;;5.78;5.28;;;;;;;;;;5032104;28;20219;-79
2023/07/28 03:17:53;;;;;;;5.88;5.38;;;;;;;;;;5021502;28;20231;-80
2023/07/28 03:20:18;;;;;;;7.40;5.85;;;;;;;;;;5020587;28;20555;-79
2023/07/28 03:22:44;;;;;;;6.20;5.28;;;;;;;;;;5032847;28;20233;-81
2023/07/28 03:25:10;;;;;;;6.68;5.95;;;;;;;;;;5020411;28;20699;-80
2023/07/28 03:27:35;;;;;;;6.55;5.95;;;;;;;;;;5037097;28;20232;-80
2023/07/28 03:30:01;;;;;;;6.70;6.10;;;;;;;;;;5005070;28;20222;-78
2023/07/28 03:32:29;;;;;;;7.45;6.75;;;;;;;;;;5036736;28;20224;-80
2023/07/28 03:34:57;;;;;;;7.78;7.07;;;;;;;;;;5005439;28;20228;-80
2023/07/28 03:37:24;;;;;;;9.25;8.45;;;;;;;;;;5013010;28;20231;-80
2023/07/28 03:39:50;;;;;;;9.05;7.78;;;;;;;;;;5011577;28;20749;-80
2023/07/28 03:42:16;;;;;;;5.50;5.05;;;;;;;;;;4986111;28;20224;-81
2023/07/28 03:44:44;;;;;;;4.47;4.07;;;;;;;;;;5046121;28;20556;-81
2023/07/28 03:47:12;;;;;;;2.97;2.60;;;;;;;;;;5032506;28;20223;-79
2023/07/28 03:49:42;;;;;;;2.50;2.30;;;;;;;;;;5054937;28;20231;-79
2023/07/28 03:52:08;;;;;;;2.80;2.60;;;;;;;;;;5038775;28;20299;-81
2023/07/28 03:54:34;;;;;;;2.38;2.17;;;;;;;;;;5004274;28;20224;-79
2023/07/28 03:56:59;;;;;;;2.45;2.33;;;;;;;;;;4997160;28;20230;-79
2023/07/28 03:59:25;;;;;;;1.80;1.70;;;;;;;;;;5037670;28;20227;-78
2023/07/28 04:05:40;;;;;;;1.65;1.55;;;;;;;;;;5044040;28;20254;-79
2023/07/28 04:08:05;;;;;;;1.73;1.63;;;;;;;;;;4999965;28;20224;-79
2023/07/28 04:10:31;;;;;;;1.50;1.40;;;;;;;;;;5005301;28;20227;-78
2023/07/28 04:12:56;;;;;;;2.17;1.98;;;;;;;;;;5011562;28;20487;-78
2023/07/28 04:15:22;;;;;;;1.70;1.60;;;;;;;;;;5014137;28;20227;-78
2023/07/28 04:17:52;;;;;;;1.80;1.70;;;;;;;;;;4992899;28;20227;-78
2023/07/28 04:20:18;;;;;;;1.98;1.80;;;;;;;;;;5009728;28;20231;-78
2023/07/28 04:22:46;;;;;;;1.90;1.80;;;;;;;;;;4991731;28;20228;-79
2023/07/28 04:25:12;;;;;;;2.95;2.13;;;;;;;;;;4974927;28;20591;-79
2023/07/28 04:27:42;;;;;;;2.17;2.00;;;;;;;;;;5003080;28;20770;-78
2023/07/28 04:30:07;;;;;;;2.40;2.20;;;;;;;;;;5031071;28;20219;-79
2023/07/28 04:32:33;;;;;;;2.40;2.20;;;;;;;;;;4977499;28;20231;-78
2023/07/28 04:35:06;;;;;;;2.50;2.30;;;;;;;;;;5015390;28;20222;-78
2023/07/28 04:37:56;;;;;;;2.90;2.30;;;;;;;;;;5012839;28;20307;-77
2023/07/28 04:40:36;;;;;;;2.50;2.30;;;;;;;;;;5022682;28;20231;-77
2023/07/28 04:43:04;;;;;;;3.78;3.03;;;;;;;;;;5002543;28;20236;-78
2023/07/28 04:45:29;;;;;;;3.20;2.55;;;;;;;;;;5029624;28;20223;-78
2023/07/28 04:47:59;;;;;;;3.28;3.08;;;;;;;;;;5012807;28;20220;-77
2023/07/28 04:50:25;;;;;;;3.10;2.80;;;;;;;;;;4998387;28;20230;-77
2023/07/28 04:53:29;;;;;;;3.03;2.83;;;;;;;;;;4967456;28;20255;-78
2023/07/28 04:56:05;;;;;;;3.55;3.15;;;;;;;;;;4958527;28;20218;-77
2023/07/28 04:58:32;;;;;;;4.35;3.95;;;;;;;;;;4996288;28;20679;-78
2023/07/28 05:01:02;;;;;;;5.85;3.90;;;;;;;;;;5028642;28;20279;-78
2023/07/28 05:03:31;;;;;;;4.95;4.38;;;;;;;;;;5023020;28;20230;-79
2023/07/28 05:06:04;;;;;;;5.05;4.65;;;;;;;;;;5008601;28;20215;-80
2023/07/28 05:08:30;;;;;;;5.40;4.90;;;;;;;;;;5030774;28;20213;-80
2023/07/28 05:10:56;;;;;;;5.57;5.15;;;;;;;;;;4989967;28;20226;-80
2023/07/28 05:13:22;;;;;;;5.50;5.10;;;;;;;;;;5031232;28;20234;-78
2023/07/28 05:15:54;;;;;;;5.55;5.05;;;;;;;;;;5019605;28;20212;-79
2023/07/28 05:18:42;;;;;;;4.40;4.07;;;;;;;;;;5026109;28;20219;-80
2023/07/28 05:21:27;;;;;;;3.95;3.65;;;;;;;;;;5037292;28;20981;-79
2023/07/28 05:23:55;;;;;;;4.60;4.20;;;;;;;;;;5037396;28;20228;-78
2023/07/28 05:26:24;;;;;;;5.03;3.50;;;;;;;;;;5063437;28;20238;-80
2023/07/28 05:28:50;;;;;;;3.75;3.45;;;;;;;;;;5035619;28;20241;-79
2023/07/28 05:31:18;;;;;;;3.15;2.95;;;;;;;;;;5025711;28;20229;-79
2023/07/28 05:33:44;;;;;;;4.75;3.40;;;;;;;;;;5032452;28;20882;-78
2023/07/28 05:36:12;;;;;;;2.95;2.75;;;;;;;;;;5031629;28;20215;-78
2023/07/28 05:38:38;;;;;;;5.57;3.20;;;;;;;;;;5010544;28;20327;-78
2023/07/28 05:41:07;;;;;;;3.38;3.08;;;;;;;;;;5022346;28;20230;-78
2023/07/28 05:43:35;;;;;;;2.80;2.60;;;;;;;;;;5038600;28;20773;-78
2023/07/28 05:46:03;;;;;;;3.10;2.90;;;;;;;;;;5012209;28;20331;-78
2023/07/28 05:48:33;;;;;;;2.40;2.30;;;;;;;;;;5009542;28;20231;-79
2023/07/28 05:50:59;;;;;;;2.22;2.10;;;;;;;;;;5014363;28;20227;-79
2023/07/28 05:53:27;;;;;;;2.40;2.20;;;;;;;;;;5015591;28;20219;-79
2023/07/28 05:55:58;;;;;;;2.72;2.53;;;;;;;;;;5032368;28;20254;-79
2023/07/28 05:58:33;;;;;;;2.20;2.10;;;;;;;;;;5039937;28;20223;-79
2023/07/28 06:01:01;;;;;;;2.58;2.38;;;;;;;;;;5068170;28;20227;-79
2023/07/28 06:04:05;;;;;;;2.45;2.08;;;;;;;;;;4980474;28;20218;-79
2023/07/28 06:06:37;;;;;;;2.15;2.05;;;;;;;;;;4978493;28;20260;-78
2023/07/28 06:09:05;;;;;;;2.42;2.30;;;;;;;;;;5011660;28;20223;-79
2023/07/28 06:11:33;;;;;;;1.98;1.88;;;;;;;;;;5048179;28;20230;-80
2023/07/28 06:14:02;;;;;;;2.47;2.08;;;;;;;;;;5001143;28;20220;-78
2023/07/28 06:16:31;;;;;;;1.90;1.80;;;;;;;;;;5007569;28;20216;-78
2023/07/28 06:18:56;;;;;;;3.75;2.03;;;;;;;;;;5031432;28;20632;-80
2023/07/28 06:21:23;;;;;;;2.15;2.05;;;;;;;;;;5004174;28;20634;-78
2023/07/28 06:23:54;;;;;;;1.70;1.60;;;;;;;;;;4991218;28;20215;-80
2023/07/28 06:26:20;;;;;;;2.05;1.90;;;;;;;;;;4997876;28;20229;-80
2023/07/28 06:28:48;;;;;;;3.85;2.10;;;;;;;;;;4981431;28;20239;-79
2023/07/28 06:31:20;;;;;;;2.30;2.10;;;;;;;;;;5033109;28;20713;-80
2023/07/28 06:33:48;;;;;;;2.15;2.05;;;;;;;;;;5010598;28;20240;-80
2023/07/28 06:36:17;;;;;;;2.03;1.92;;;;;;;;;;5037389;28;20307;-80
2023/07/28 06:38:52;;;;;;;1.77;1.67;;;;;;;;;;5019034;28;20227;-80
2023/07/28 06:41:18;;;;;;;1.83;1.73;;;;;;;;;;5044260;28;20219;-78
2023/07/28 06:43:50;;;;;;;2.00;1.88;;;;;;;;;;5034183;28;20272;-80
2023/07/28 06:46:18;;;;;;;2.13;1.80;;;;;;;;;;5022823;28;20220;-78
2023/07/28 06:48:46;;;;;;;1.88;1.77;;;;;;;;;;5020046;28;20315;-80
2023/07/28 06:51:14;;;;;;;1.80;1.70;;;;;;;;;;5012787;28;20232;-80
2023/07/28 06:53:42;;;;;;;2.17;2.08;;;;;;;;;;5014495;28;20728;-81
2023/07/28 06:56:08;;;;;;;2.08;1.85;;;;;;;;;;5042863;28;20227;-79
2023/07/28 06:58:34;;;;;;;2.28;2.08;;;;;;;;;;5026039;28;20235;-79
2023/07/28 07:00:59;;;;;;;2.03;1.92;;;;;;;;;;5016361;28;20212;-79
2023/07/28 07:03:25;;;;;;;2.08;1.98;;;;;;;;;;5031680;28;20228;-80
2023/07/28 07:05:51;;;;;;;3.53;1.58;;;;;;;;;;5027291;28;20219;-80
2023/07/28 07:08:16;;;;;;;1.83;1.73;;;;;;;;;;5035020;28;20220;-78
2023/07/28 07:10:51;;;;;;;2.50;2.25;;;;;;;;;;5005019;28;20246;-79
2023/07/28 07:13:16;;;;;;;2.05;1.95;;;;;;;;;;5001843;28;20647;-79
2023/07/28 07:15:45;;;;;;;2.00;1.90;;;;;;;;;;5045065;28;20212;-78
2023/07/28 07:18:13;;;;;;;2.28;2.10;;;;;;;;;;5044244;28;20227;-78
2023/07/28 07:20:38;;;;;;;1.73;1.60;;;;;;;;;;5036471;28;20290;-80
2023/07/28 07:23:04;;;;;;;1.80;1.70;;;;;;;;;;5016146;28;20328;-80
2023/07/28 07:25:30;;;;;;;2.05;1.95;;;;;;;;;;5015761;28;20243;-77
2023/07/28 07:27:58;;;;;;;1.90;1.80;;;;;;;;;;5020667;28;20212;-78
2023/07/28 07:30:23;;;;;;;1.70;1.60;;;;;;;;;;5028601;28;20242;-80
2023/07/28 07:32:49;;;;;;;1.67;1.50;;;;;;;;;;5013346;28;20227;-79
2023/07/28 07:35:19;;;;;;;1.30;1.23;;;;;;;;;;5030314;28;20298;-79
2023/07/28 07:37:47;;;;;;;1.10;1.10;;;;;;;;;;5034612;28;20767;-78
2023/07/28 07:40:15;;;;;;;1.10;1.05;;;;;;;;;;5032882;28;20216;-80
2023/07/28 07:42:42;;;;;;;0.90;0.90;;;;;;;;;;5035960;28;20322;-79
2023/07/28 07:45:10;;;;;;;0.98;0.90;;;;;;;;;;5035001;28;20212;-78
2023/07/28 07:47:39;;;;;;;0.45;0.45;;;;;;;;;;5035151;28;20300;-78
2023/07/28 07:50:06;;;;;;;0.60;0.60;;;;;;;;;;5019194;28;20728;-79
2023/07/28 07:52:34;;;;;;;0.77;0.77;;;;;;;;;;5017936;28;20228;-78
2023/07/28 07:54:59;;;;;;;0.68;0.68;;;;;;;;;;5020565;28;20211;-78
2023/07/28 07:57:25;;;;;;;0.70;0.70;;;;;;;;;;4995209;28;20289;-76
2023/07/28 07:59:53;;;;;;;2.17;0.73;;;;;;;;;;5028615;28;20218;-79
2023/07/28 08:02:18;;;;;;;1.10;1.00;;;;;;;;;;5028805;28;20247;-79
2023/07/28 08:04:46;;;;;;;1.02;1.00;;;;;;;;;;5042679;28;20458;-78
2023/07/28 08:07:16;;;;;;;1.42;1.30;;;;;;;;;;5021515;28;20220;-78
2023/07/28 08:09:41;;;;;;;1.75;1.65;;;;;;;;;;5021367;28;20220;-79
2023/07/28 08:12:08;;;;;;;1.88;1.77;;;;;;;;;;5034293;28;20282;-78
2023/07/28 08:14:36;;;;;;;1.55;1.45;;;;;;;;;;5019799;28;20622;-81
2023/07/28 08:17:04;;;;;;;1.75;1.65;;;;;;;;;;5035085;28;20266;-79
2023/07/28 08:19:34;;;;;;;2.35;2.03;;;;;;;;;;4997793;28;20793;-79
2023/07/28 08:22:03;;;;;;;3.22;2.10;;;;;;;;;;4993338;28;20232;-79
2023/07/28 08:24:33;;;;;;;2.88;2.67;;;;;;;;;;5005554;28;21047;-78
2023/07/28 08:26:59;;;;;;;2.85;2.65;;;;;;;;;;5039845;28;20228;-79
2023/07/28 08:29:25;;;;;;;3.47;3.10;;;;;;;;;;5032718;28;20223;-79
2023/07/28 08:31:51;;;;;;;4.13;3.85;;;;;;;;;;5032584;28;20299;-81
2023/07/28 08:34:17;;;;;;;6.03;5.38;;;;;;;;;;5033779;28;20222;-80
2023/07/28 08:36:43;;;;;;;7.53;6.75;;;;;;;;;;5050247;28;20586;-80
2023/07/28 08:39:09;;;;;;;9.07;8.23;;;;;;;;;;5053752;28;20215;-80
2023/07/28 08:41:35;;;;;;;8.23;7.47;;;;;;;;;;5038145;28;20581;-80
2023/07/28 08:44:00;;;;;;;9.95;9.15;;;;;;;;;;5015572;28;20303;-80
2023/07/28 08:46:26;;;;;;;11.18;10.15;;;;;;;;;;5017835;28;20219;-80
2023/07/28 08:48:54;;;;;;;12.85;11.65;;;;;;;;;;5030289;28;20211;-76
2023/07/28 08:51:23;;;;;;;13.73;12.32;;;;;;;;;;5026312;28;20321;-79
2023/07/28 08:53:49;;;;;;;15.65;14.05;;;;;;;;;;5012875;28;20677;-80
2023/07/28 08:56:14;;;;;;;15.95;14.23;;;;;;;;;;4999654;28;20214;-80
2023/07/28 08:58:40;;;;;;;18.23;16.30;;;;;;;;;;5047799;28;20232;-79
2023/07/28 09:01:05;;;;;;;18.30;16.48;;;;;;;;;;5013347;28;20219;-80
2023/07/28 09:03:33;;;;;;;18.98;17.15;;;;;;;;;;5023126;28;20234;-78
2023/07/28 09:06:08;;;;;;;19.85;17.88;;;;;;;;;;5031396;28;20298;-80
2023/07/28 09:08:38;;;;;;;23.08;20.70;;;;;;;;;;4999869;28;20326;-80
2023/07/28 09:11:06;;;;;;;23.80;21.30;;;;;;;;;;4990708;28;20585;-79
2023/07/28 09:13:41;;;;;;;23.70;21.60;;;;;;;;;;5025057;28;20220;-79
2023/07/28 09:16:19;;;;;;;25.52;21.42;;;;;;;;;;5042335;28;20700;-78
2023/07/28 09:18:47;;;;;;;24.63;22.23;;;;;;;;;;5035942;28;20234;-78
2023/07/28 09:21:21;;;;;;;23.13;20.65;;;;;;;;;;5029566;28;20214;-78
2023/07/28 09:23:47;;;;;;;24.60;22.23;;;;;;;;;;5024788;28;20313;-79
2023/07/28 09:26:15;;;;;;;25.27;22.77;;;;;;;;;;4989942;28;20684;-77
2023/07/28 09:28:41;;;;;;;24.75;22.25;;;;;;;;;;5023420;28;20266;-78
2023/07/28 09:31:07;;;;;;;24.00;21.65;;;;;;;;;;5030537;28;20224;-78
2023/07/28 09:33:35;;;;;;;25.52;23.10;;;;;;;;;;5016874;28;20296;-77
2023/07/28 09:36:11;;;;;;;24.13;22.02;;;;;;;;;;5021042;28;20303;-78
2023/07/28 09:38:42;;;;;;;24.23;21.70;;;;;;;;;;5027483;28;20220;-76
2023/07/28 09:41:11;;;;;;;26.92;24.33;;;;;;;;;;5022061;28;20681;-78
2023/07/28 09:43:39;;;;;;;23.65;21.50;;;;;;;;;;5024488;28;20251;-79
2023/07/28 09:46:08;;;;;;;23.17;21.08;;;;;;;;;;5004513;28;20215;-77
2023/07/28 09:48:34;;;;;;;23.05;20.95;;;;;;;;;;5031485;28;20232;-80
2023/07/28 09:51:04;;;;;;;23.42;21.13;;;;;;;;;;5032216;28;20224;-80
2023/07/28 09:53:34;;;;;;;21.75;19.75;;;;;;;;;;5029179;28;20262;-79
2023/07/28 09:56:00;;;;;;;21.35;19.38;;;;;;;;;;5015713;28;20211;-78
2023/07/28 09:58:25;;;;;;;20.08;18.35;;;;;;;;;;5038115;28;20261;-78
2023/07/28 10:00:51;;;;;;;19.83;18.13;;;;;;;;;;5009019;28;20219;-77
2023/07/28 10:03:16;;;;;;;18.25;16.70;;;;;;;;;;4994983;28;20723;-80
2023/07/28 10:05:42;;;;;;;20.08;18.00;;;;;;;;;;5025834;28;20228;-78
2023/07/28 10:08:10;;;;;;;18.13;16.23;;;;;;;;;;5039115;28;20215;-78
2023/07/28 10:10:36;;;;;;;17.90;16.20;;;;;;;;;;5023298;28;20239;-78
2023/07/28 10:13:02;;;;;;;16.60;14.77;;;;;;;;;;4988300;28;20223;-81
2023/07/28 10:15:30;;;;;;;15.88;14.38;;;;;;;;;;5007127;28;20224;-79
2023/07/28 10:18:02;;;;;;;23.02;15.80;;;;;;;;;;5026041;28;20986;-79
2023/07/28 10:20:43;;;;;;;19.08;17.10;;;;;;;;;;5032212;28;20235;-80
2023/07/28 10:23:24;;;;;;;19.25;17.35;;;;;;;;;;5042538;28;20247;-80
2023/07/28 10:26:00;;;;;;;18.30;16.70;;;;;;;;;;5051208;28;20866;-77
2023/07/28 10:28:32;;;;;;;20.88;18.90;;;;;;;;;;4995123;28;20312;-79
2023/07/28 10:30:58;;;;;;;21.48;19.60;;;;;;;;;;5027393;28;20291;-78
2023/07/28 10:33:34;;;;;;;21.27;19.20;;;;;;;;;;5038228;28;20250;-77
2023/07/28 10:36:13;;;;;;;20.25;18.55;;;;;;;;;;5042302;28;20230;-78
2023/07/28 10:38:39;;;;;;;16.98;15.18;;;;;;;;;;5000271;28;20767;-78
2023/07/28 10:41:12;;;;;;;5.07;4.57;;;;;;;;;;4987104;28;20212;-78
2023/07/28 10:43:40;;;;;;;3.53;3.22;;;;;;;;;;5017951;28;20224;-77
2023/07/28 10:46:13;;;;;;;4.00;3.60;;;;;;;;;;5031160;28;20218;-78
2023/07/28 10:48:46;;;;;;;5.95;4.13;;;;;;;;;;4996797;28;20223;-79
2023/07/28 10:51:12;;;;;;;4.20;3.80;;;;;;;;;;5017288;28;20661;-77
2023/07/28 10:53:38;;;;;;;14.73;4.10;;;;;;;;;;5031004;28;20231;-78
2023/07/28 10:56:07;;;;;;;3.72;3.00;;;;;;;;;;5019707;28;21063;-79
2023/07/28 10:58:35;;;;;;;6.57;2.60;;;;;;;;;;5044815;28;20263;-78
2023/07/28 11:01:01;;;;;;;5.50;2.72;;;;;;;;;;5012290;28;20216;-77
2023/07/28 11:03:28;;;;;;;2.45;2.25;;;;;;;;;;5042980;28;20288;-78
2023/07/28 11:05:56;;;;;;;2.50;2.30;;;;;;;;;;5033177;28;20219;-78
2023/07/28 11:08:24;;;;;;;2.78;2.58;;;;;;;;;;4991703;28;20685;-78
2023/07/28 11:10:50;;;;;;;3.30;3.10;;;;;;;;;;5043704;28;20232;-78
2023/07/28 11:13:15;;;;;;;2.28;2.10;;;;;;;;;;5030822;28;20922;-78
2023/07/28 11:15:42;;;;;;;2.90;2.70;;;;;;;;;;5010132;28;20235;-78
2023/07/28 11:18:11;;;;;;;5.40;3.30;;;;;;;;;;5040319;28;20244;-80
2023/07/28 11:20:39;;;;;;;3.70;3.50;;;;;;;;;;5022553;28;20234;-80
2023/07/28 11:23:05;;;;;;;3.70;3.40;;;;;;;;;;5034041;28;20224;-79
2023/07/28 11:25:32;;;;;;;4.00;3.70;;;;;;;;;;5049124;28;20747;-79
2023/07/28 11:27:58;;;;;;;4.47;4.22;;;;;;;;;;5016742;28;20219;-77
2023/07/28 11:30:23;;;;;;;4.82;4.53;;;;;;;;;;5032751;28;20235;-78
2023/07/28 11:32:50;;;;;;;5.03;4.63;;;;;;;;;;5046527;28;20778;-79
2023/07/28 11:35:17;;;;;;;5.20;4.90;;;;;;;;;;5031492;28;20802;-78
2023/07/28 11:37:44;;;;;;;6.82;6.32;;;;;;;;;;5018715;28;20242;-78
2023/07/28 11:40:14;;;;;;;6.45;5.95;;;;;;;;;;5011196;28;20747;-78
2023/07/28 11:42:42;;;;;;;6.97;6.47;;;;;;;;;;5046624;28;20662;-78
2023/07/28 11:45:09;;;;;;;8.40;7.70;;;;;;;;;;5018567;28;20216;-78
2023/07/28 11:47:35;;;;;;;9.40;8.55;;;;;;;;;;5053227;28;20234;-78
2023/07/28 11:50:03;;;;;;;8.38;7.68;;;;;;;;;;5018318;28;20223;-79
2023/07/28 11:52:34;;;;;;;9.57;8.70;;;;;;;;;;5056063;28;20228;-78
2023/07/28 11:55:06;;;;;;;6.68;6.07;;;;;;;;;;5028296;28;20227;-79
2023/07/28 11:57:34;;;;;;;4.97;4.57;;;;;;;;;;5015137;28;20234;-78
2023/07/28 11:59:59;;;;;;;5.40;4.93;;;;;;;;;;4997574;28;20209;-78
2023/07/28 12:02:31;;;;;;;4.47;4.18;;;;;;;;;;5023266;28;20228;-78
2023/07/28 12:04:59;;;;;;;3.83;3.63;;;;;;;;;;5003164;28;20213;-78
2023/07/28 12:07:34;;;;;;;4.07;3.78;;;;;;;;;;5019010;28;20285;-79
2023/07/28 12:10:09;;;;;;;4.55;4.25;;;;;;;;;;4996749;28;20215;-77
2023/07/28 12:12:43;;;;;;;5.18;4.68;;;;;;;;;;5004830;28;20255;-78
2023/07/28 12:15:28;;;;;;;5.28;4.80;;;;;;;;;;4973344;28;20238;-78
2023/07/28 12:18:20;;;;;;;10.15;4.82;;;;;;;;;;5000813;28;20239;-78
2023/07/28 12:20:50;;;;;;;5.78;5.38;;;;;;;;;;5010944;28;20240;-79
2023/07/28 12:23:20;;;;;;;5.80;5.40;;;;;;;;;;5011373;28;20215;-79
2023/07/28 12:25:46;;;;;;;6.68;6.18;;;;;;;;;;5032412;28;20223;-79
2023/07/28 12:28:11;;;;;;;6.35;5.85;;;;;;;;;;4999341;28;20211;-78
2023/07/28 12:30:39;;;;;;;6.97;6.07;;;;;;;;;;5044669;28;20249;-79
2023/07/28 12:33:05;;;;;;;7.20;6.70;;;;;;;;;;5014926;28;20224;-78
2023/07/28 12:35:34;;;;;;;6.80;6.30;;;;;;;;;;5026083;28;20231;-78
2023/07/28 12:38:04;;;;;;;6.82;6.22;;;;;;;;;;5001200;28;20215;-78
2023/07/28 12:40:33;;;;;;;7.40;6.70;;;;;;;;;;5016138;28;20298;-78
2023/07/28 12:43:01;;;;;;;6.97;6.47;;;;;;;;;;4999702;28;20223;-78
2023/07/28 12:45:26;;;;;;;6.50;5.82;;;;;;;;;;5006227;28;20905;-78
2023/07/28 12:47:55;;;;;;;6.68;6.10;;;;;;;;;;5008902;28;20216;-79
2023/07/28 12:50:21;;;;;;;6.50;5.97;;;;;;;;;;4999594;28;20212;-78
2023/07/28 12:52:48;;;;;;;6.32;5.07;;;;;;;;;;5024110;28;20239;-79
2023/07/28 12:55:13;;;;;;;6.10;5.53;;;;;;;;;;5042781;28;20212;-78
2023/07/28 12:57:39;;;;;;;5.80;5.25;;;;;;;;;;5002815;28;20220;-80
2023/07/28 13:00:12;;;;;;;5.68;5.28;;;;;;;;;;5037001;28;20200;-79
2023/07/28 13:02:43;;;;;;;6.25;5.75;;;;;;;;;;5027560;28;20240;-80
2023/07/28 13:05:13;;;;;;;7.00;6.40;;;;;;;;;;5019244;28;20219;-79
2023/07/28 13:07:40;;;;;;;7.60;6.90;;;;;;;;;;4986046;28;20234;-79
2023/07/28 13:10:07;;;;;;;7.32;6.63;;;;;;;;;;5013552;28;20299;-82
2023/07/28 13:12:32;;;;;;;7.20;6.60;;;;;;;;;;5025590;28;20247;-79
2023/07/28 13:15:00;;;;;;;7.55;6.95;;;;;;;;;;5015192;28;20215;-81
2023/07/28 13:17:25;;;;;;;7.30;6.68;;;;;;;;;;5017961;28;20238;-79
2023/07/28 13:19:51;;;;;;;7.78;5.90;;;;;;;;;;5032460;28;20227;-81
2023/07/28 13:22:17;;;;;;;5.93;5.43;;;;;;;;;;5009055;28;20696;-79
2023/07/28 13:24:45;;;;;;;5.20;4.80;;;;;;;;;;5005802;28;20224;-78
2023/07/28 13:27:13;;;;;;;5.72;5.22;;;;;;;;;;5013747;28;20294;-79
2023/07/28 13:29:38;;;;;;;5.63;5.15;;;;;;;;;;5013529;28;20231;-78
2023/07/28 13:32:04;;;;;;;4.90;4.45;;;;;;;;;;5020805;28;20767;-78
2023/07/28 13:34:30;;;;;;;4.03;3.72;;;;;;;;;;5011050;28;20236;-78
2023/07/28 13:36:55;;;;;;;3.47;3.17;;;;;;;;;;5027065;28;20230;-78
2023/07/28 13:39:22;;;;;;;2.50;2.30;;;;;;;;;;5028783;28;20592;-78
2023/07/28 13:41:50;;;;;;;2.88;2.58;;;;;;;;;;5047062;28;20251;-77
2023/07/28 13:44:16;;;;;;;2.72;2.53;;;;;;;;;;5047228;28;20275;-78
2023/07/28 13:46:41;;;;;;;3.20;2.90;;;;;;;;;;5055261;28;20273;-79
2023/07/28 13:49:07;;;;;;;3.05;2.85;;;;;;;;;;5022282;28;20215;-78
2023/07/28 13:51:32;;;;;;;2.50;2.30;;;;;;;;;;5031883;28;20242;-78
2023/07/28 13:53:58;;;;;;;2.60;2.40;;;;;;;;;;5030573;28;20227;-78
2023/07/28 13:56:25;;;;;;;2.55;2.35;;;;;;;;;;5044180;28;20228;-79
2023/07/28 13:58:51;;;;;;;3.95;2.10;;;;;;;;;;5002951;28;20219;-79
2023/07/28 14:01:16;;;;;;;2.60;2.40;;;;;;;;;;5007692;28;20218;-79
2023/07/28 14:03:42;;;;;;;2.47;2.20;;;;;;;;;;5045239;28;20232;-78
2023/07/28 14:06:07;;;;;;;2.75;1.95;;;;;;;;;;5045350;28;20227;-80
2023/07/28 14:08:35;;;;;;;2.15;1.95;;;;;;;;;;5034122;28;20230;-80
2023/07/28 14:11:01;;;;;;;2.10;2.00;;;;;;;;;;5031702;28;20234;-80
2023/07/28 14:13:26;;;;;;;5.38;2.60;;;;;;;;;;5040375;28;20227;-77
2023/07/28 14:15:55;;;;;;;2.40;2.20;;;;;;;;;;5004320;28;20227;-78
2023/07/28 14:18:20;;;;;;;2.90;2.10;;;;;;;;;;5006357;28;20778;-78
2023/07/28 14:20:46;;;;;;;1.95;1.85;;;;;;;;;;5046876;28;20219;-78
2023/07/28 14:23:21;;;;;;;2.13;1.92;;;;;;;;;;5039834;28;20241;-79
2023/07/28 14:25:47;;;;;;;2.15;1.95;;;;;;;;;;5027606;28;20235;-79
2023/07/28 14:28:13;;;;;;;4.03;1.98;;;;;;;;;;5023310;28;20579;-80
2023/07/28 14:30:38;;;;;;;1.58;1.48;;;;;;;;;;5029975;28;20216;-79
2023/07/28 14:33:06;;;;;;;3.38;1.80;;;;;;;;;;5026484;28;20303;-77
2023/07/28 14:35:32;;;;;;;2.65;1.88;;;;;;;;;;5018062;28;20220;-81
2023/07/28 14:37:57;;;;;;;1.80;1.70;;;;;;;;;;5000642;28;20223;-80
2023/07/28 14:40:25;;;;;;;1.70;1.60;;;;;;;;;;5014094;28;20254;-80
2023/07/28 14:42:52;;;;;;;2.17;1.67;;;;;;;;;;5028026;28;20223;-79
2023/07/28 14:45:20;;;;;;;1.73;1.63;;;;;;;;;;5029810;28;20215;-82
2023/07/28 14:47:46;;;;;;;1.60;1.50;;;;;;;;;;5021591;28;20228;-81
2023/07/28 14:50:11;;;;;;;1.67;1.58;;;;;;;;;;5016332;28;20211;-82
2023/07/28 14:52:38;;;;;;;1.73;1.63;;;;;;;;;;4999788;28;20262;-80